Time;durP1;ratioP1;P1;durP2;ratioP2;P2;SDS_P1;SDS_P2;PMS_P1;PMS_P2;Temp;Humidity;BMP_temperature;BMP_pressure;BME280_temperature;BME280_humidity;BME280_pressure;Samples;Min_cycle;Max_cycle;Signal;HPM_P1;HPM_P2
2022/01/31 00:01:00;;;;;;;4.88;2.08;;;9.40;73.80;;;;;;5029828;28;20088;-80
2022/01/31 00:03:27;;;;;;;5.53;1.42;;;9.40;73.70;;;;;;5028736;28;20038;-79
2022/01/31 00:05:54;;;;;;;5.22;1.70;;;9.50;73.90;;;;;;5030234;28;20080;-82
2022/01/31 00:08:24;;;;;;;4.47;1.25;;;9.50;73.80;;;;;;5010843;28;20030;-84
2022/01/31 00:10:50;;;;;;;6.10;1.75;;;9.50;73.70;;;;;;5010250;28;20042;-83
2022/01/31 00:13:21;;;;;;;4.18;1.00;;;9.50;73.60;;;;;;5025774;28;20034;-83
2022/01/31 00:15:53;;;;;;;3.85;0.90;;;9.50;73.50;;;;;;5030009;28;20065;-83
2022/01/31 00:18:20;;;;;;;3.92;1.10;;;9.50;73.50;;;;;;5031205;28;20037;-83
2022/01/31 00:20:47;;;;;;;2.95;1.00;;;9.50;73.40;;;;;;5032010;28;20524;-82
2022/01/31 00:23:13;;;;;;;4.20;1.38;;;9.50;73.30;;;;;;5031265;28;20021;-82
2022/01/31 00:25:39;;;;;;;6.57;2.03;;;9.60;73.40;;;;;;5029674;28;20037;-83
2022/01/31 00:28:05;;;;;;;2.85;1.30;;;9.50;73.20;;;;;;5013124;28;20025;-82
2022/01/31 00:30:32;;;;;;;5.10;1.20;;;9.50;73.10;;;;;;5019218;28;20240;-82
2022/01/31 00:32:58;;;;;;;3.13;0.85;;;9.50;73.00;;;;;;5008706;28;20033;-83
2022/01/31 00:35:26;;;;;;;3.55;1.20;;;9.50;73.00;;;;;;5010191;28;20030;-85
2022/01/31 00:37:52;;;;;;;7.78;1.58;;;9.60;73.10;;;;;;5025062;28;20129;-83
2022/01/31 00:40:19;;;;;;;4.32;1.60;;;9.50;72.80;;;;;;5017970;28;20040;-84
2022/01/31 00:42:47;;;;;;;5.88;1.55;;;9.60;73.00;;;;;;5029911;28;20033;-83
2022/01/31 00:45:18;;;;;;;4.57;0.90;;;9.50;72.70;;;;;;5029238;28;20492;-83
2022/01/31 00:47:58;;;;;;;4.07;1.00;;;9.60;72.80;;;;;;5009299;28;20046;-83
2022/01/31 00:50:25;;;;;;;6.07;1.15;;;9.50;72.60;;;;;;5019238;28;20145;-82
2022/01/31 00:52:51;;;;;;;6.15;1.30;;;9.60;72.70;;;;;;5009555;28;20026;-82
2022/01/31 00:55:17;;;;;;;4.82;1.35;;;9.50;72.50;;;;;;5008816;28;20034;-82
2022/01/31 00:57:44;;;;;;;4.90;1.15;;;9.50;72.50;;;;;;5007938;28;20465;-79
2022/01/31 01:00:11;;;;;;;8.85;2.08;;;9.50;72.40;;;;;;5014206;28;20554;-80
2022/01/31 01:02:38;;;;;;;4.85;1.00;;;9.50;72.30;;;;;;5027083;28;20487;-80
2022/01/31 01:05:06;;;;;;;5.80;0.98;;;9.50;72.30;;;;;;5011246;28;20124;-79
2022/01/31 01:07:32;;;;;;;8.27;1.08;;;9.50;72.30;;;;;;5028466;28;20519;-78
2022/01/31 01:09:58;;;;;;;5.80;1.10;;;9.50;72.20;;;;;;5022406;28;20141;-79
2022/01/31 01:12:24;;;;;;;5.97;1.42;;;9.50;72.20;;;;;;5009322;28;20029;-79
2022/01/31 01:14:51;;;;;;;3.10;1.20;;;9.50;72.10;;;;;;4991434;28;20116;-84
2022/01/31 01:17:18;;;;;;;4.55;1.10;;;9.50;72.10;;;;;;4991600;28;20041;-84
2022/01/31 01:19:45;;;;;;;6.75;1.20;;;9.40;71.90;;;;;;5007271;28;20045;-82
2022/01/31 01:22:11;;;;;;;5.50;1.30;;;9.50;72.00;;;;;;5009174;28;20112;-82
2022/01/31 01:24:38;;;;;;;6.22;1.05;;;9.50;72.00;;;;;;5007588;28;20686;-82
2022/01/31 01:27:04;;;;;;;3.70;0.95;;;9.40;71.70;;;;;;5008297;28;20128;-83
2022/01/31 01:29:30;;;;;;;6.32;1.42;;;9.40;71.70;;;;;;4990523;28;20030;-83
2022/01/31 01:31:57;;;;;;;3.95;0.82;;;9.50;71.80;;;;;;5007578;28;20426;-83
2022/01/31 01:34:32;;;;;;;4.40;1.50;;;9.50;71.80;;;;;;5007283;28;20604;-83
2022/01/31 01:36:58;;;;;;;9.27;1.30;;;9.40;71.60;;;;;;5023720;28;20032;-83
2022/01/31 01:39:26;;;;;;;4.10;1.52;;;9.40;71.60;;;;;;5007098;28;20034;-82
2022/01/31 01:41:52;;;;;;;7.45;2.65;;;9.40;71.50;;;;;;5007952;28;20034;-82
2022/01/31 01:44:40;;;;;;;7.95;1.40;;;9.40;71.50;;;;;;5006880;28;20701;-82
2022/01/31 01:47:06;;;;;;;3.92;1.08;;;9.40;71.40;;;;;;5023936;28;20056;-81
2022/01/31 01:49:33;;;;;;;10.48;1.63;;;9.40;71.40;;;;;;5026387;28;20442;-81
2022/01/31 01:51:59;;;;;;;3.75;1.30;;;9.40;71.30;;;;;;5026985;28;20035;-81
2022/01/31 01:54:25;;;;;;;5.65;0.95;;;9.40;71.30;;;;;;5026536;28;20037;-81
2022/01/31 01:56:51;;;;;;;5.47;0.93;;;9.40;71.30;;;;;;5027944;28;20113;-83
2022/01/31 01:59:18;;;;;;;4.80;1.77;;;9.40;71.20;;;;;;5026186;28;20069;-82
2022/01/31 02:02:05;;;;;;;9.30;2.22;;;9.40;71.20;;;;;;5013121;28;20424;-81
2022/01/31 02:04:32;;;;;;;5.05;1.30;;;9.30;71.00;;;;;;5026610;28;20037;-86
2022/01/31 02:06:59;;;;;;;3.97;1.20;;;9.40;71.10;;;;;;5027253;28;20557;-86
2022/01/31 02:09:29;;;;;;;5.18;1.30;;;9.30;70.80;;;;;;5027007;28;20504;-87
2022/01/31 02:11:57;;;;;;;8.27;2.13;;;9.30;70.80;;;;;;5027242;28;20025;-86
2022/01/31 02:14:24;;;;;;;4.57;1.30;;;9.30;70.80;;;;;;5010358;28;20025;-86
2022/01/31 02:17:10;;;;;;;7.72;1.40;;;9.30;70.80;;;;;;5027691;28;20033;-84
2022/01/31 02:19:48;;;;;;;6.95;2.47;;;9.30;70.80;;;;;;5026451;28;20025;-83
2022/01/31 02:22:25;;;;;;;5.40;1.10;;;9.30;70.80;;;;;;5012121;28;20503;-85
2022/01/31 02:24:57;;;;;;;7.35;1.25;;;9.30;70.70;;;;;;5028035;28;20049;-82
2022/01/31 02:27:37;;;;;;;6.40;1.48;;;9.30;70.70;;;;;;5042531;28;20052;-82
2022/01/31 02:30:13;;;;;;;8.20;1.73;;;9.30;70.60;;;;;;5037475;28;20030;-82
2022/01/31 02:32:44;;;;;;;8.02;1.23;;;9.30;70.60;;;;;;5007052;28;20069;-83
2022/01/31 02:35:13;;;;;;;7.43;1.50;;;9.30;70.50;;;;;;5008774;28;20037;-82
2022/01/31 02:37:39;;;;;;;4.55;1.02;;;9.30;70.50;;;;;;5007870;28;20523;-84
2022/01/31 02:40:26;;;;;;;9.73;2.20;;;9.30;70.50;;;;;;5008460;28;20041;-84
2022/01/31 02:42:54;;;;;;;7.05;1.58;;;9.30;70.50;;;;;;5008567;28;20121;-84
2022/01/31 02:45:23;;;;;;;4.80;1.02;;;9.30;70.50;;;;;;4992887;28;20042;-83
2022/01/31 02:47:54;;;;;;;5.93;1.20;;;9.30;70.50;;;;;;5020237;28;20071;-85
2022/01/31 02:50:21;;;;;;;5.78;1.60;;;9.30;70.50;;;;;;5009833;28;20528;-85
2022/01/31 02:52:57;;;;;;;5.45;1.42;;;9.20;70.30;;;;;;5009683;28;20038;-84
2022/01/31 02:55:23;;;;;;;6.10;1.35;;;9.30;70.50;;;;;;5010108;28;20116;-85
2022/01/31 02:57:50;;;;;;;3.97;1.48;;;9.20;70.20;;;;;;5009792;28;20026;-82
2022/01/31 03:00:17;;;;;;;3.60;1.30;;;9.20;70.20;;;;;;5009403;28;20036;-82
2022/01/31 03:03:01;;;;;;;6.47;1.27;;;9.20;70.20;;;;;;5011053;28;20022;-81
2022/01/31 03:05:27;;;;;;;4.90;1.30;;;9.20;70.60;;;;;;5009414;28;20511;-83
2022/01/31 03:07:53;;;;;;;5.70;1.70;;;9.20;70.10;;;;;;5011126;28;20034;-82
2022/01/31 03:10:20;;;;;;;4.28;1.20;;;9.20;70.10;;;;;;5011409;28;20036;-82
2022/01/31 03:12:46;;;;;;;5.90;1.38;;;9.20;70.10;;;;;;5012907;28;20030;-82
2022/01/31 03:15:12;;;;;;;8.73;2.15;;;9.20;70.10;;;;;;5012632;28;20065;-81
2022/01/31 03:17:59;;;;;;;7.07;1.67;;;9.20;70.10;;;;;;5013435;28;20030;-83
2022/01/31 03:20:26;;;;;;;5.10;1.90;;;9.20;70.00;;;;;;5014557;28;20033;-83
2022/01/31 03:22:52;;;;;;;8.32;1.77;;;9.10;69.80;;;;;;5030213;28;20022;-85
2022/01/31 03:25:19;;;;;;;6.43;2.65;;;9.10;69.80;;;;;;5036677;28;20053;-85
2022/01/31 03:27:48;;;;;;;7.47;1.88;;;9.10;69.80;;;;;;5036552;28;20030;-84
2022/01/31 03:30:21;;;;;;;6.18;1.30;;;9.10;69.80;;;;;;5037219;28;20030;-84
2022/01/31 03:32:49;;;;;;;9.13;1.70;;;9.10;69.70;;;;;;5037238;28;20042;-84
2022/01/31 03:35:16;;;;;;;4.30;1.98;;;9.10;69.70;;;;;;5038803;28;20022;-85
2022/01/31 03:37:43;;;;;;;5.95;1.60;;;9.10;69.70;;;;;;5039207;28;20030;-84
2022/01/31 03:40:11;;;;;;;4.65;2.10;;;9.10;69.70;;;;;;5039093;28;20024;-84
2022/01/31 03:42:38;;;;;;;8.43;1.88;;;9.10;69.60;;;;;;5023015;28;20014;-79
2022/01/31 03:45:07;;;;;;;5.75;1.33;;;9.10;69.60;;;;;;5022748;28;20102;-83
2022/01/31 03:47:36;;;;;;;8.07;1.90;;;9.10;69.60;;;;;;5011781;28;20457;-87
2022/01/31 03:50:03;;;;;;;6.07;1.55;;;9.10;69.60;;;;;;5000069;28;20045;-86
2022/01/31 03:52:30;;;;;;;7.10;3.35;;;9.10;69.60;;;;;;5015058;28;20461;-84
2022/01/31 03:54:59;;;;;;;9.30;1.98;;;9.00;69.40;;;;;;4997590;28;20126;-83
2022/01/31 03:57:26;;;;;;;5.40;2.08;;;9.00;69.40;;;;;;5032801;28;20025;-84
2022/01/31 04:00:18;;;;;;;8.75;1.52;;;9.00;69.40;;;;;;5029745;28;20567;-83
2022/01/31 04:02:44;;;;;;;11.65;2.30;;;9.00;69.40;;;;;;5033969;28;20087;-84
2022/01/31 04:05:11;;;;;;;8.60;2.08;;;9.00;69.40;;;;;;5033694;28;20046;-83
2022/01/31 04:07:37;;;;;;;7.93;1.50;;;8.90;69.20;;;;;;5033240;28;20029;-82
2022/01/31 04:10:04;;;;;;;9.07;1.95;;;8.90;69.20;;;;;;5033518;28;20048;-83
2022/01/31 04:12:30;;;;;;;7.20;1.90;;;8.90;69.20;;;;;;5033302;28;20025;-83
2022/01/31 04:14:56;;;;;;;12.20;1.65;;;8.90;69.20;;;;;;5033728;28;20029;-82
2022/01/31 04:17:24;;;;;;;10.18;2.25;;;8.90;69.20;;;;;;5033595;28;20124;-81
2022/01/31 04:19:51;;;;;;;12.48;2.35;;;8.90;69.10;;;;;;5033413;28;20033;-83
2022/01/31 04:22:19;;;;;;;7.50;1.30;;;8.90;69.10;;;;;;5033384;28;20112;-82
2022/01/31 04:24:48;;;;;;;7.90;1.75;;;8.90;69.10;;;;;;5032733;28;20141;-83
2022/01/31 04:27:18;;;;;;;9.88;1.85;;;8.90;69.10;;;;;;5033361;28;20068;-81
2022/01/31 04:29:46;;;;;;;5.93;1.48;;;8.90;69.00;;;;;;5032375;28;20029;-82
2022/01/31 04:32:12;;;;;;;8.85;2.42;;;8.90;69.00;;;;;;5033162;28;20025;-82
2022/01/31 04:34:38;;;;;;;6.25;1.60;;;8.90;69.00;;;;;;5033282;28;20026;-81
2022/01/31 04:37:04;;;;;;;10.90;2.17;;;8.90;69.00;;;;;;5032948;28;20025;-80
2022/01/31 04:39:31;;;;;;;13.48;2.33;;;8.90;68.90;;;;;;5032807;28;20119;-81
2022/01/31 04:41:57;;;;;;;5.95;1.52;;;8.80;68.70;;;;;;5033640;28;20109;-83
2022/01/31 04:44:24;;;;;;;9.43;1.42;;;8.80;68.70;;;;;;5032614;28;20377;-81
2022/01/31 04:46:51;;;;;;;5.35;1.40;;;8.80;68.70;;;;;;5032466;28;20061;-80
2022/01/31 04:49:19;;;;;;;7.25;1.75;;;8.80;68.70;;;;;;5032233;28;20041;-80
2022/01/31 04:51:45;;;;;;;7.57;1.27;;;8.80;68.60;;;;;;5032230;28;20079;-80
2022/01/31 04:54:11;;;;;;;7.93;1.85;;;8.80;68.60;;;;;;5031130;28;20455;-82
2022/01/31 04:56:40;;;;;;;9.07;1.83;;;8.80;68.60;;;;;;5033542;28;20064;-80
2022/01/31 04:59:07;;;;;;;8.55;1.80;;;8.80;68.60;;;;;;5032481;28;20021;-83
2022/01/31 05:01:34;;;;;;;7.07;1.60;;;8.80;68.60;;;;;;5033082;28;20029;-82
2022/01/31 05:04:00;;;;;;;7.00;1.55;;;8.80;68.60;;;;;;5032632;28;20159;-81
2022/01/31 05:06:31;;;;;;;4.22;1.23;;;8.80;68.50;;;;;;5032582;28;20029;-81
2022/01/31 05:08:58;;;;;;;7.70;1.40;;;8.80;68.50;;;;;;5020043;28;20026;-82
2022/01/31 05:11:24;;;;;;;8.32;1.85;;;8.80;68.50;;;;;;5013266;28;20401;-82
2022/01/31 05:13:50;;;;;;;5.63;2.05;;;8.70;68.30;;;;;;5012935;28;20037;-83
2022/01/31 05:16:15;;;;;;;8.60;1.73;;;8.70;68.30;;;;;;5012979;28;20029;-84
2022/01/31 05:18:44;;;;;;;7.55;2.33;;;8.70;68.30;;;;;;5012134;28;20072;-91
2022/01/31 05:21:10;;;;;;;8.45;2.00;;;8.70;68.30;;;;;;5012621;28;20366;-80
2022/01/31 05:23:37;;;;;;;8.07;1.65;;;8.70;68.20;;;;;;5012351;28;20099;-82
2022/01/31 05:26:04;;;;;;;6.07;2.05;;;8.70;68.20;;;;;;5013101;28;20040;-81
2022/01/31 05:28:30;;;;;;;8.15;1.42;;;8.70;68.30;;;;;;5011664;28;20026;-82
2022/01/31 05:30:56;;;;;;;6.90;1.58;;;8.70;68.30;;;;;;5011267;28;20120;-80
2022/01/31 05:33:21;;;;;;;6.55;1.27;;;8.60;68.10;;;;;;5012429;28;20017;-80
2022/01/31 05:35:48;;;;;;;6.53;1.50;;;8.60;68.10;;;;;;5012084;28;20068;-80
2022/01/31 05:38:13;;;;;;;7.15;2.28;;;8.60;68.10;;;;;;5011699;28;20030;-81
2022/01/31 05:40:40;;;;;;;6.50;1.10;;;8.60;68.10;;;;;;5010336;28;20033;-79
2022/01/31 05:43:06;;;;;;;6.50;2.05;;;8.60;68.10;;;;;;5011659;28;20033;-80
2022/01/31 05:45:32;;;;;;;7.25;1.50;;;8.60;68.10;;;;;;5011882;28;20102;-79
2022/01/31 05:47:58;;;;;;;7.68;1.80;;;8.60;68.10;;;;;;5015048;28;20049;-81
2022/01/31 05:50:24;;;;;;;6.82;1.88;;;8.60;68.10;;;;;;5028560;28;20048;-79
2022/01/31 05:52:51;;;;;;;7.80;1.73;;;8.60;68.10;;;;;;5028449;28;20033;-80
2022/01/31 05:55:17;;;;;;;5.47;1.70;;;8.60;68.00;;;;;;5043449;28;20038;-80
2022/01/31 05:57:43;;;;;;;7.05;2.67;;;8.60;68.00;;;;;;5027743;28;20033;-81
2022/01/31 06:00:11;;;;;;;5.68;1.52;;;8.60;68.00;;;;;;5009531;28;20489;-81
2022/01/31 06:02:39;;;;;;;6.05;1.42;;;8.60;67.90;;;;;;5011035;28;20057;-79
2022/01/31 06:05:06;;;;;;;8.77;1.48;;;8.60;67.90;;;;;;4992654;28;20041;-83
2022/01/31 06:07:32;;;;;;;7.57;1.90;;;8.60;67.90;;;;;;5009863;28;20485;-81
2022/01/31 06:09:59;;;;;;;5.72;1.70;;;8.60;67.80;;;;;;5024343;28;20062;-80
2022/01/31 06:12:25;;;;;;;6.38;1.67;;;8.60;68.30;;;;;;5028511;28;20041;-81
2022/01/31 06:14:51;;;;;;;7.45;1.48;;;8.60;67.70;;;;;;5002899;28;20038;-81
2022/01/31 06:17:17;;;;;;;9.73;2.78;;;8.60;67.70;;;;;;5022618;28;20051;-83
2022/01/31 06:19:43;;;;;;;7.47;1.52;;;8.60;67.60;;;;;;5019207;28;20501;-84
2022/01/31 06:22:09;;;;;;;5.85;2.35;;;8.60;67.60;;;;;;5028190;28;20072;-84
2022/01/31 06:24:35;;;;;;;8.80;1.65;;;8.60;67.50;;;;;;5019878;28;20219;-79
2022/01/31 06:27:12;;;;;;;6.72;1.30;;;8.70;67.60;;;;;;5007696;28;20568;-91
2022/01/31 06:29:38;;;;;;;6.85;1.70;;;8.70;67.60;;;;;;5021332;28;20112;-82
2022/01/31 06:32:11;;;;;;;5.72;1.85;;;8.60;67.30;;;;;;5022576;28;20517;-77
2022/01/31 06:34:37;;;;;;;7.03;1.60;;;8.70;67.50;;;;;;5016501;28;20033;-79
2022/01/31 06:37:04;;;;;;;11.63;2.47;;;8.60;67.30;;;;;;5024408;28;20021;-81
2022/01/31 06:39:31;;;;;;;5.03;2.30;;;8.60;67.30;;;;;;5013749;28;20030;-83
2022/01/31 06:41:57;;;;;;;11.25;2.15;;;8.70;67.60;;;;;;5008267;28;20038;-86
2022/01/31 06:44:23;;;;;;;5.00;1.92;;;8.70;67.70;;;;;;5006464;28;20034;-80
2022/01/31 06:46:49;;;;;;;8.80;1.27;;;8.70;67.60;;;;;;5011782;28;20041;-79
2022/01/31 06:49:15;;;;;;;9.88;1.55;;;8.80;68.00;;;;;;5020344;28;20033;-86
2022/01/31 06:51:41;;;;;;;4.95;1.40;;;8.90;68.80;;;;;;5006968;28;20084;-79
2022/01/31 06:54:08;;;;;;;6.82;1.65;;;9.00;69.20;;;;;;5015533;28;20035;-81
2022/01/31 06:56:38;;;;;;;6.88;1.35;;;9.00;69.20;;;;;;5010335;28;20109;-79
2022/01/31 06:59:04;;;;;;;7.50;2.30;;;9.10;69.40;;;;;;5021125;28;20033;-81
2022/01/31 07:01:30;;;;;;;5.50;1.23;;;9.10;69.30;;;;;;5029981;28;20441;-79
2022/01/31 07:03:57;;;;;;;6.70;1.45;;;9.20;69.60;;;;;;5013232;28;20033;-78
2022/01/31 07:06:24;;;;;;;5.47;1.60;;;9.20;69.60;;;;;;5030726;28;20117;-82
2022/01/31 07:08:51;;;;;;;5.40;1.67;;;9.10;69.40;;;;;;5031452;28;20025;-79
2022/01/31 07:11:22;;;;;;;8.15;1.73;;;9.10;69.40;;;;;;5030265;28;20120;-80
2022/01/31 07:13:59;;;;;;;6.63;1.58;;;9.10;69.50;;;;;;5031041;28;20462;-79
2022/01/31 07:16:26;;;;;;;7.25;1.40;;;9.10;69.40;;;;;;5025035;28;20029;-79
2022/01/31 07:18:55;;;;;;;4.95;1.23;;;9.10;69.40;;;;;;5022447;28;20037;-80
2022/01/31 07:21:26;;;;;;;9.63;2.92;;;9.10;69.40;;;;;;5013662;28;20025;-79
2022/01/31 07:24:05;;;;;;;4.03;0.98;;;9.10;69.40;;;;;;5009713;28;20115;-86
2022/01/31 07:26:31;;;;;;;3.45;1.30;;;9.00;69.20;;;;;;5031414;28;20033;-83
2022/01/31 07:28:57;;;;;;;11.00;3.13;;;9.10;69.40;;;;;;5028785;28;20029;-80
2022/01/31 07:31:24;;;;;;;5.80;1.30;;;9.00;69.20;;;;;;5013017;28;20090;-80
2022/01/31 07:33:49;;;;;;;5.63;1.40;;;9.00;69.10;;;;;;5015207;28;20038;-81
2022/01/31 07:36:17;;;;;;;5.20;1.55;;;9.00;68.90;;;;;;5033466;28;20033;-78
2022/01/31 07:38:43;;;;;;;9.02;2.63;;;9.00;68.80;;;;;;5016492;28;20041;-78
2022/01/31 07:41:14;;;;;;;9.95;1.33;;;9.00;68.80;;;;;;5031110;28;20025;-78
2022/01/31 07:43:43;;;;;;;7.85;1.98;;;9.00;68.70;;;;;;5028792;28;20029;-78
2022/01/31 07:46:13;;;;;;;5.97;1.60;;;9.00;68.70;;;;;;5028763;28;20033;-79
2022/01/31 07:48:39;;;;;;;4.55;1.20;;;9.00;68.50;;;;;;5020109;28;20132;-78
2022/01/31 07:51:08;;;;;;;6.78;1.13;;;9.00;68.50;;;;;;5008499;28;20468;-78
2022/01/31 07:53:34;;;;;;;6.75;1.23;;;9.00;68.40;;;;;;5008686;28;20056;-80
2022/01/31 07:56:02;;;;;;;7.93;1.65;;;9.00;68.40;;;;;;5019576;28;20033;-80
2022/01/31 07:58:28;;;;;;;7.65;1.80;;;9.00;68.30;;;;;;5029255;28;20025;-78
2022/01/31 08:00:54;;;;;;;11.60;1.60;;;9.00;68.30;;;;;;5028698;28;20518;-80
2022/01/31 08:03:21;;;;;;;7.13;1.60;;;9.00;68.30;;;;;;5028192;28;20132;-82
2022/01/31 08:05:46;;;;;;;7.45;1.50;;;9.10;68.40;;;;;;5028179;28;20191;-79
2022/01/31 08:08:13;;;;;;;7.05;1.42;;;9.10;68.40;;;;;;5027403;28;20428;-80
2022/01/31 08:10:39;;;;;;;9.43;1.73;;;9.10;68.40;;;;;;5028622;28;20041;-79
2022/01/31 08:13:07;;;;;;;6.50;1.83;;;9.10;68.30;;;;;;5028733;28;20040;-81
2022/01/31 08:15:44;;;;;;;7.13;1.30;;;9.10;68.20;;;;;;5029686;28;20508;-80
2022/01/31 08:18:10;;;;;;;4.38;1.27;;;9.10;68.20;;;;;;5012604;28;20116;-80
2022/01/31 08:20:36;;;;;;;6.82;1.92;;;9.10;68.20;;;;;;5030460;28;20076;-79
2022/01/31 08:23:02;;;;;;;4.97;1.35;;;9.10;68.10;;;;;;5028773;28;20241;-80
2022/01/31 08:25:29;;;;;;;4.47;1.52;;;9.10;68.00;;;;;;5028800;28;20042;-81
2022/01/31 08:28:01;;;;;;;5.95;1.15;;;9.10;68.00;;;;;;5012618;28;20041;-80
2022/01/31 08:30:37;;;;;;;7.68;2.13;;;9.10;67.90;;;;;;5028157;28;20578;-80
2022/01/31 08:33:13;;;;;;;4.95;1.23;;;9.10;67.90;;;;;;4995599;28;20540;-77
2022/01/31 08:35:48;;;;;;;7.10;1.75;;;9.10;67.80;;;;;;5027639;28;20034;-78
2022/01/31 08:38:16;;;;;;;4.93;1.70;;;9.10;67.70;;;;;;5027583;28;20484;-77
2022/01/31 08:40:43;;;;;;;8.07;2.47;;;9.10;67.70;;;;;;5028991;28;20073;-80
2022/01/31 08:43:09;;;;;;;6.25;1.48;;;9.10;67.70;;;;;;5029490;28;20036;-80
2022/01/31 08:45:36;;;;;;;5.40;1.33;;;9.20;67.80;;;;;;5028296;28;20040;-78
2022/01/31 08:48:03;;;;;;;5.97;2.55;;;9.20;67.70;;;;;;5025994;28;20046;-83
2022/01/31 08:50:29;;;;;;;5.45;1.45;;;9.20;67.70;;;;;;5008707;28;20057;-80
2022/01/31 08:52:55;;;;;;;9.27;3.08;;;9.20;67.60;;;;;;5009990;28;20026;-80
2022/01/31 08:55:21;;;;;;;5.65;1.35;;;9.30;67.70;;;;;;5010211;28;20080;-81
2022/01/31 08:57:52;;;;;;;4.63;1.83;;;9.30;67.60;;;;;;5025825;28;20041;-79
2022/01/31 09:00:20;;;;;;;7.25;2.50;;;9.30;67.60;;;;;;5028842;28;20057;-77
2022/01/31 09:03:01;;;;;;;7.93;2.15;;;9.30;67.50;;;;;;5030221;28;20376;-82
2022/01/31 09:05:27;;;;;;;6.22;1.40;;;9.30;67.50;;;;;;5029982;28;20037;-80
2022/01/31 09:07:53;;;;;;;5.03;1.23;;;9.30;67.40;;;;;;5029065;28;20369;-83
2022/01/31 09:10:19;;;;;;;6.90;1.42;;;9.30;67.40;;;;;;5027542;28;20460;-84
2022/01/31 09:12:45;;;;;;;9.00;2.35;;;9.30;67.40;;;;;;5030255;28;20546;-88
2022/01/31 09:15:14;;;;;;;9.45;2.25;;;9.40;67.60;;;;;;5026798;28;20033;-86
2022/01/31 09:17:41;;;;;;;4.78;1.70;;;9.40;67.50;;;;;;5027968;28;20021;-88
2022/01/31 09:20:08;;;;;;;7.18;2.05;;;9.40;67.40;;;;;;5028554;28;20448;-84
2022/01/31 09:22:34;;;;;;;5.40;1.48;;;9.50;67.50;;;;;;5029782;28;20539;-93
2022/01/31 09:25:01;;;;;;;4.15;1.75;;;9.50;67.30;;;;;;5028829;28;20114;-85
2022/01/31 09:27:28;;;;;;;7.75;1.48;;;9.50;67.30;;;;;;5028633;28;20105;-85
2022/01/31 09:29:55;;;;;;;9.50;2.65;;;9.60;67.30;;;;;;5029029;28;20078;-85
2022/01/31 09:32:24;;;;;;;4.70;1.17;;;9.70;67.30;;;;;;5029942;28;20392;-85
2022/01/31 09:34:51;;;;;;;6.90;1.35;;;9.70;67.20;;;;;;5028405;28;20029;-85
2022/01/31 09:37:21;;;;;;;5.30;1.65;;;9.80;67.20;;;;;;5028934;28;20030;-89
2022/01/31 09:39:48;;;;;;;4.35;1.48;;;9.90;67.20;;;;;;5013594;28;20033;-86
2022/01/31 09:42:25;;;;;;;7.43;1.45;;;9.90;67.00;;;;;;5010200;28;20041;-86
2022/01/31 09:48:30;;;;;;;6.05;2.28;;;10.00;67.00;;;;;;5009989;28;20054;-86
2022/01/31 09:50:10;;;;;;;7.97;1.40;;;10.10;67.10;;;;;;5027280;28;20546;-87
2022/01/31 09:52:36;;;;;;;8.32;1.50;;;10.10;67.00;;;;;;5028923;28;20025;-88
2022/01/31 09:55:02;;;;;;;8.70;2.65;;;10.10;66.90;;;;;;5028328;28;20060;-88
2022/01/31 09:57:28;;;;;;;5.00;1.25;;;10.20;67.00;;;;;;5028947;28;20044;-88
2022/01/31 09:59:54;;;;;;;6.80;3.00;;;10.20;66.90;;;;;;4996630;28;20026;-86
2022/01/31 10:02:20;;;;;;;5.30;2.00;;;10.30;67.00;;;;;;5009637;28;20030;-86
2022/01/31 10:04:48;;;;;;;9.57;1.70;;;10.30;66.90;;;;;;5009313;28;20048;-89
2022/01/31 10:07:15;;;;;;;7.28;1.60;;;10.30;66.90;;;;;;5024533;28;20469;-89
2022/01/31 10:09:46;;;;;;;7.30;2.10;;;10.40;67.00;;;;;;5022610;28;20025;-92
2022/01/31 10:17:40;;;;;;;5.32;1.75;;;10.40;66.70;;;;;;5028237;28;20103;-86
2022/01/31 10:20:29;;;;;;;9.38;2.42;;;10.50;66.70;;;;;;5013586;28;20034;-91
2022/01/31 10:22:55;;;;;;;11.50;2.70;;;10.60;66.60;;;;;;5025450;28;20045;-86
2022/01/31 10:25:23;;;;;;;10.93;2.45;;;10.60;66.50;;;;;;5009438;28;20042;-81
2022/01/31 10:27:52;;;;;;;13.02;3.08;;;10.60;66.00;;;;;;5026483;28;20544;-84
2022/01/31 10:30:25;;;;;;;11.68;2.38;;;10.60;65.70;;;;;;5030415;28;20043;-81
2022/01/31 10:32:53;;;;;;;8.85;2.42;;;10.60;65.30;;;;;;5015014;28;20101;-83
2022/01/31 10:35:25;;;;;;;12.30;2.90;;;10.50;65.00;;;;;;5032096;28;20033;-83
2022/01/31 10:38:05;;;;;;;12.52;2.15;;;10.50;64.80;;;;;;5031350;28;20503;-85
2022/01/31 10:54:26;;;;;;;6.38;2.10;;;10.90;65.00;;;;;;5014574;28;20038;-84
2022/01/31 10:56:57;;;;;;;7.05;2.58;;;10.90;64.80;;;;;;5031536;28;20037;-83
2022/01/31 10:59:32;;;;;;;5.65;1.80;;;11.10;65.00;;;;;;5031653;28;20029;-84
2022/01/31 11:01:59;;;;;;;6.15;2.33;;;11.20;64.90;;;;;;5031237;28;20104;-83
2022/01/31 11:04:36;;;;;;;6.70;2.03;;;11.20;64.70;;;;;;5031917;28;20047;-82
2022/01/31 11:07:06;;;;;;;8.93;2.22;;;11.30;64.70;;;;;;5031766;28;20029;-77
2022/01/31 11:09:35;;;;;;;7.47;1.38;;;11.40;64.70;;;;;;5019527;28;20216;-79
2022/01/31 11:12:02;;;;;;;5.78;2.05;;;11.40;64.60;;;;;;5011747;28;20026;-77
2022/01/31 11:14:29;;;;;;;8.55;1.92;;;11.40;64.60;;;;;;5011816;28;20029;-77
2022/01/31 11:16:55;;;;;;;4.50;1.75;;;11.40;64.60;;;;;;5010938;28;20030;-77
2022/01/31 11:19:30;;;;;;;5.13;1.73;;;11.50;64.80;;;;;;5012470;28;20088;-83
2022/01/31 11:22:01;;;;;;;7.40;1.65;;;11.50;64.60;;;;;;5011867;28;20252;-84
2022/01/31 11:24:31;;;;;;;6.90;1.25;;;11.60;64.70;;;;;;5011416;28;20046;-78
2022/01/31 11:27:22;;;;;;;7.05;1.70;;;11.60;64.40;;;;;;5012192;28;20026;-78
2022/01/31 11:29:53;;;;;;;3.72;1.27;;;11.60;64.30;;;;;;5009986;28;20623;-78
2022/01/31 11:32:19;;;;;;;5.15;1.45;;;11.60;64.50;;;;;;5011636;28;20033;-78
2022/01/31 11:34:46;;;;;;;4.95;2.13;;;11.50;64.40;;;;;;5010937;28;20048;-77
2022/01/31 11:37:15;;;;;;;4.32;1.70;;;11.50;64.50;;;;;;5011358;28;20084;-77
2022/01/31 11:39:47;;;;;;;5.63;1.50;;;11.50;64.60;;;;;;5009512;28;20056;-79
2022/01/31 11:42:13;;;;;;;7.82;3.45;;;11.50;64.70;;;;;;5010658;28;20034;-78
2022/01/31 11:45:01;;;;;;;7.90;1.30;;;11.50;64.70;;;;;;5001306;28;20071;-80
2022/01/31 11:47:29;;;;;;;10.70;2.88;;;11.60;64.70;;;;;;5030065;28;20045;-79
2022/01/31 11:50:01;;;;;;;5.60;1.35;;;11.60;64.70;;;;;;5024020;28;20034;-80
2022/01/31 11:52:43;;;;;;;7.18;1.33;;;11.80;64.80;;;;;;5029593;28;20018;-83
2022/01/31 11:55:12;;;;;;;6.55;1.23;;;11.90;64.70;;;;;;5033812;28;20022;-86
2022/01/31 11:57:39;;;;;;;7.07;1.38;;;12.00;64.60;;;;;;5033944;28;20018;-85
2022/01/31 12:00:09;;;;;;;6.05;1.52;;;12.10;64.60;;;;;;5017518;28;20038;-87
2022/01/31 12:02:44;;;;;;;4.38;0.95;;;12.10;64.40;;;;;;5033908;28;20018;-86
2022/01/31 12:05:16;;;;;;;5.47;1.75;;;12.10;64.40;;;;;;5033731;28;20042;-86
2022/01/31 12:07:44;;;;;;;7.25;1.55;;;12.10;64.50;;;;;;5034907;28;20042;-82
2022/01/31 12:10:19;;;;;;;6.88;1.45;;;12.10;64.60;;;;;;5049133;28;20037;-78
2022/01/31 12:15:49;;;;;;;5.03;1.30;;;12.00;64.50;;;;;;5032114;28;20057;-81
2022/01/31 12:23:59;;;;;;;4.28;1.23;;;12.10;65.30;;;;;;5023203;28;20048;-86
2022/01/31 12:26:36;;;;;;;4.93;1.40;;;12.10;65.50;;;;;;4992322;28;20068;-84
2022/01/31 12:29:11;;;;;;;4.00;1.90;;;12.20;65.60;;;;;;5023738;28;20030;-87
2022/01/31 12:31:48;;;;;;;5.43;2.05;;;12.20;65.50;;;;;;5014008;28;20108;-86
2022/01/31 12:34:21;;;;;;;6.80;1.20;;;12.30;65.60;;;;;;5010807;28;20448;-83
2022/01/31 12:36:52;;;;;;;3.95;1.55;;;12.30;65.50;;;;;;5003204;28;20046;-84
2022/01/31 12:39:39;;;;;;;4.80;0.82;;;12.20;65.20;;;;;;5032833;28;20114;-84
2022/01/31 12:45:24;;;;;;;5.90;1.40;;;12.20;65.00;;;;;;5031074;28;20575;-80
2022/01/31 12:48:20;;;;;;;5.95;1.63;;;12.20;65.10;;;;;;5029874;28;20488;-82
2022/01/31 12:50:49;;;;;;;6.45;1.20;;;12.30;65.10;;;;;;5026164;28;20532;-84
2022/01/31 12:53:29;;;;;;;3.70;1.15;;;12.30;65.10;;;;;;5027077;28;20121;-88
2022/01/31 12:56:06;;;;;;;5.30;1.25;;;12.20;64.30;;;;;;5030002;28;20033;-87
2022/01/31 12:58:41;;;;;;;4.63;1.50;;;12.20;64.10;;;;;;5028810;28;20047;-86
2022/01/31 13:01:13;;;;;;;8.45;2.38;;;12.10;64.00;;;;;;5027899;28;20480;-85
2022/01/31 13:03:49;;;;;;;6.03;1.70;;;12.10;63.80;;;;;;5027883;28;20052;-83
2022/01/31 13:06:32;;;;;;;5.40;1.30;;;12.10;63.70;;;;;;5028691;28;20155;-83
2022/01/31 13:09:10;;;;;;;6.57;1.15;;;12.10;63.60;;;;;;5023582;28;20036;-84
2022/01/31 13:11:40;;;;;;;8.35;1.50;;;12.20;63.80;;;;;;5009698;28;20476;-84
2022/01/31 13:14:09;;;;;;;5.60;1.63;;;12.20;63.80;;;;;;5017467;28;20184;-85
2022/01/31 13:16:42;;;;;;;5.00;1.40;;;12.30;63.90;;;;;;5007874;28;20030;-85
2022/01/31 13:19:21;;;;;;;5.40;1.88;;;12.30;63.70;;;;;;5026953;28;20533;-84
2022/01/31 13:21:49;;;;;;;8.52;2.38;;;12.30;63.70;;;;;;5027975;28;20025;-84
2022/01/31 13:24:17;;;;;;;7.50;2.35;;;12.30;63.80;;;;;;5029186;28;20128;-82
2022/01/31 13:26:57;;;;;;;5.07;1.98;;;12.30;63.70;;;;;;5028840;28;20116;-84
2022/01/31 13:29:37;;;;;;;4.20;1.67;;;12.30;63.60;;;;;;5027015;28;20128;-82
2022/01/31 13:32:19;;;;;;;4.85;1.98;;;12.30;63.60;;;;;;5028980;28;20029;-83
2022/01/31 13:34:49;;;;;;;5.55;1.08;;;12.30;63.50;;;;;;5028701;28;20068;-83
2022/01/31 13:37:34;;;;;;;5.28;1.05;;;12.30;63.60;;;;;;5027572;28;20053;-85